Time;durP1;ratioP1;P1;durP2;ratioP2;P2;SDS_P1;SDS_P2;PMS_P1;PMS_P2;Temp;Humidity;BMP_temperature;BMP_pressure;BME280_temperature;BME280_humidity;BME280_pressure;Samples;Min_cycle;Max_cycle;Signal;HPM_P1;HPM_P2
2022/03/08 00:02:32;;;;;;;22.90;20.50;;;1.90;68.70;;;;;;10455725;28;20266;-87
2022/03/08 00:07:36;;;;;;;21.90;19.70;;;1.90;68.70;;;;;;10464935;28;20434;-88
2022/03/08 00:12:38;;;;;;;23.97;21.37;;;1.80;68.40;;;;;;10469318;28;20228;-87
2022/03/08 00:17:40;;;;;;;22.10;19.03;;;1.80;70.00;;;;;;10469061;28;20211;-88
2022/03/08 00:22:45;;;;;;;20.83;18.80;;;1.80;69.00;;;;;;10477113;28;20248;-88
2022/03/08 00:27:48;;;;;;;20.93;18.83;;;1.70;68.90;;;;;;10471047;28;20208;-88
2022/03/08 00:33:15;;;;;;;20.13;18.13;;;1.70;69.20;;;;;;10476791;28;20696;-88
2022/03/08 00:38:18;;;;;;;22.13;18.47;;;1.70;70.00;;;;;;10463633;28;20277;-88
2022/03/08 00:43:21;;;;;;;20.27;18.27;;;1.60;68.60;;;;;;10483161;28;20719;-88
2022/03/08 00:48:23;;;;;;;20.90;18.70;;;1.60;71.50;;;;;;10462036;28;20203;-87
2022/03/08 00:53:27;;;;;;;18.37;16.47;;;1.60;70.60;;;;;;10466062;28;20493;-88
2022/03/08 00:58:29;;;;;;;18.93;17.00;;;1.50;70.40;;;;;;10481112;28;20583;-88
2022/03/08 01:03:31;;;;;;;20.07;17.97;;;1.50;69.40;;;;;;10477388;28;20243;-88
2022/03/08 01:08:35;;;;;;;21.07;17.47;;;1.50;70.40;;;;;;10467755;28;20301;-88
2022/03/08 01:13:38;;;;;;;19.30;17.40;;;1.50;70.50;;;;;;10468006;28;20217;-88
2022/03/08 01:18:40;;;;;;;20.53;18.40;;;1.40;70.30;;;;;;10507504;28;20181;-87
2022/03/08 01:23:44;;;;;;;19.53;17.53;;;1.50;71.90;;;;;;10480806;28;20223;-88
2022/03/08 01:28:51;;;;;;;20.33;18.33;;;1.40;69.50;;;;;;10454873;28;20196;-88
2022/03/08 01:33:54;;;;;;;19.67;17.67;;;1.40;70.50;;;;;;10464403;28;20224;-86
2022/03/08 01:38:58;;;;;;;17.10;15.43;;;1.40;69.90;;;;;;10466509;28;20200;-89
2022/03/08 01:44:00;;;;;;;19.70;17.70;;;1.30;70.10;;;;;;10454263;28;20227;-87
2022/03/08 01:49:09;;;;;;;17.50;15.70;;;1.30;71.50;;;;;;10467691;28;20271;-88
2022/03/08 01:54:13;;;;;;;17.13;15.43;;;1.20;70.30;;;;;;10466563;28;20266;-88
2022/03/08 01:59:15;;;;;;;19.10;17.20;;;1.30;71.80;;;;;;10475593;28;20210;-88
2022/03/08 02:04:21;;;;;;;17.17;15.60;;;1.30;71.80;;;;;;10460062;28;20223;-88
2022/03/08 02:09:25;;;;;;;17.10;15.37;;;1.20;70.60;;;;;;10464268;28;20643;-88
2022/03/08 02:14:28;;;;;;;18.00;16.10;;;1.30;72.10;;;;;;10467654;28;20224;-88
2022/03/08 02:19:30;;;;;;;17.17;15.47;;;1.20;71.50;;;;;;10470370;28;20242;-88
2022/03/08 02:24:34;;;;;;;19.20;16.60;;;1.20;71.00;;;;;;10479916;28;20263;-88
2022/03/08 02:29:36;;;;;;;17.90;16.30;;;1.20;72.60;;;;;;10479651;28;20204;-88
2022/03/08 02:34:43;;;;;;;18.97;16.90;;;1.20;72.10;;;;;;10463571;28;20216;-89
2022/03/08 02:39:47;;;;;;;19.60;17.53;;;1.20;71.70;;;;;;10463087;28;20203;-88
2022/03/08 02:44:49;;;;;;;17.47;15.77;;;1.10;71.20;;;;;;10461013;22;20295;-83
2022/03/08 02:49:51;;;;;;;18.90;16.90;;;1.00;70.90;;;;;;10440930;28;20201;-83
2022/03/08 02:54:54;;;;;;;18.00;16.10;;;1.00;72.00;;;;;;10463959;28;20242;-83
2022/03/08 02:59:56;;;;;;;19.53;17.43;;;0.90;70.70;;;;;;10458672;28;20253;-83
2022/03/08 03:04:58;;;;;;;20.20;18.13;;;0.80;69.70;;;;;;10460575;28;20228;-83
2022/03/08 03:10:02;;;;;;;20.10;17.97;;;0.80;72.30;;;;;;10469055;28;20591;-84
2022/03/08 03:15:06;;;;;;;20.57;18.33;;;0.80;71.50;;;;;;10442784;28;20263;-83
2022/03/08 03:20:11;;;;;;;21.67;19.47;;;0.80;71.50;;;;;;10460517;28;20664;-83
2022/03/08 03:25:15;;;;;;;21.83;18.73;;;0.70;72.60;;;;;;10476792;28;20778;-83
2022/03/08 03:30:19;;;;;;;20.70;17.93;;;0.70;71.60;;;;;;10466034;28;20217;-83
2022/03/08 03:35:21;;;;;;;21.13;18.93;;;0.70;70.60;;;;;;10476766;28;20232;-83
2022/03/08 03:40:25;;;;;;;19.20;17.00;;;0.60;72.00;;;;;;10461574;28;20287;-83
2022/03/08 03:45:27;;;;;;;20.17;18.17;;;0.60;72.30;;;;;;10480645;28;20726;-84
2022/03/08 03:50:30;;;;;;;20.50;17.40;;;0.70;73.50;;;;;;10465458;28;20311;-84
2022/03/08 03:55:33;;;;;;;22.50;18.57;;;0.60;72.30;;;;;;10471223;28;20220;-84
2022/03/08 04:00:36;;;;;;;18.50;16.60;;;0.70;73.60;;;;;;10482463;28;20861;-85
2022/03/08 04:05:38;;;;;;;17.90;16.10;;;0.70;71.60;;;;;;10470253;28;20315;-85
2022/03/08 04:10:41;;;;;;;17.00;15.30;;;0.60;73.30;;;;;;10469335;28;20213;-84
2022/03/08 04:15:44;;;;;;;17.03;15.23;;;0.50;71.70;;;;;;10477208;28;20219;-84
2022/03/08 04:20:46;;;;;;;16.50;14.93;;;0.50;71.60;;;;;;10474532;28;20743;-83
2022/03/08 04:25:50;;;;;;;14.90;13.40;;;0.50;72.10;;;;;;10453398;28;20327;-83
2022/03/08 04:30:52;;;;;;;15.27;13.77;;;0.50;70.60;;;;;;10478551;28;20216;-84
2022/03/08 04:35:54;;;;;;;15.70;14.20;;;0.50;72.40;;;;;;10482130;28;20323;-84
2022/03/08 04:40:58;;;;;;;12.83;11.63;;;0.50;73.90;;;;;;10477837;28;20318;-83
2022/03/08 04:46:00;;;;;;;15.87;14.27;;;0.50;73.90;;;;;;10474539;28;20229;-85
2022/03/08 04:51:02;;;;;;;14.70;13.30;;;0.70;74.00;;;;;;10441157;28;20319;-86
2022/03/08 04:56:06;;;;;;;16.63;13.97;;;0.70;74.20;;;;;;10481259;28;20229;-86
2022/03/08 05:01:08;;;;;;;13.90;12.50;;;0.80;74.00;;;;;;10424497;28;20892;-86
2022/03/08 05:06:10;;;;;;;13.00;11.70;;;0.90;72.70;;;;;;10448901;28;20312;-86
2022/03/08 05:11:14;;;;;;;12.37;11.17;;;0.80;71.90;;;;;;10448834;28;20272;-87
2022/03/08 05:16:16;;;;;;;13.47;12.20;;;0.70;71.90;;;;;;10465953;28;20221;-88
2022/03/08 05:21:19;;;;;;;14.57;13.07;;;0.60;74.70;;;;;;10461165;28;20692;-84
2022/03/08 05:26:22;;;;;;;12.40;10.97;;;0.60;74.50;;;;;;10471366;28;20311;-82
2022/03/08 05:31:24;;;;;;;13.60;12.40;;;0.70;74.60;;;;;;10455727;28;20248;-82
2022/03/08 05:36:26;;;;;;;12.33;11.13;;;0.70;73.10;;;;;;10444304;28;20317;-83
2022/03/08 05:41:30;;;;;;;12.20;11.10;;;0.70;72.50;;;;;;10439569;28;20219;-83
2022/03/08 05:46:32;;;;;;;12.77;11.57;;;0.70;72.10;;;;;;10433312;28;20231;-83
2022/03/08 05:51:34;;;;;;;12.80;11.50;;;0.60;73.50;;;;;;10474433;28;20242;-83
2022/03/08 05:56:37;;;;;;;13.00;11.33;;;0.60;74.50;;;;;;10455892;28;20248;-83
2022/03/08 06:01:39;;;;;;;10.57;9.57;;;0.70;74.50;;;;;;10438779;28;20228;-83
2022/03/08 06:06:42;;;;;;;12.90;11.60;;;0.70;73.50;;;;;;10458520;28;20606;-83
2022/03/08 06:11:45;;;;;;;11.70;10.60;;;0.80;74.20;;;;;;10462266;28;20202;-83
2022/03/08 06:16:47;;;;;;;11.83;10.70;;;0.80;72.70;;;;;;10453211;28;20236;-83
2022/03/08 06:21:49;;;;;;;12.13;10.70;;;0.80;74.70;;;;;;10432052;28;20264;-82
2022/03/08 06:26:53;;;;;;;13.47;12.00;;;0.90;74.50;;;;;;10463835;28;20680;-83
2022/03/08 06:31:55;;;;;;;14.70;11.90;;;1.00;75.20;;;;;;10451062;28;20241;-82
2022/03/08 06:36:57;;;;;;;12.20;10.93;;;1.10;74.10;;;;;;10447300;28;20194;-81
2022/03/08 06:42:00;;;;;;;15.23;13.67;;;1.20;73.00;;;;;;10453682;28;20577;-82
2022/03/08 06:47:02;;;;;;;16.70;13.43;;;1.20;74.90;;;;;;10469687;28;20224;-81
2022/03/08 06:52:06;;;;;;;21.03;15.23;;;1.30;74.90;;;;;;10500161;28;20225;-81
2022/03/08 06:57:09;;;;;;;20.57;14.40;;;1.30;75.30;;;;;;10476956;28;20671;-82
2022/03/08 07:02:11;;;;;;;21.30;18.63;;;1.40;75.40;;;;;;10468779;28;20220;-82
2022/03/08 07:07:14;;;;;;;19.90;16.53;;;1.40;75.50;;;;;;10450501;28;20642;-82
2022/03/08 07:12:17;;;;;;;19.23;17.20;;;1.50;75.00;;;;;;10458642;28;20220;-82
2022/03/08 07:17:19;;;;;;;21.63;17.20;;;1.50;75.70;;;;;;10475994;28;20406;-83
2022/03/08 07:22:21;;;;;;;20.10;16.87;;;1.60;75.30;;;;;;10463299;28;20573;-81
2022/03/08 07:27:25;;;;;;;18.13;16.20;;;1.70;75.70;;;;;;10450506;28;20204;-81
2022/03/08 07:32:27;;;;;;;17.60;15.70;;;1.80;75.60;;;;;;10456867;28;20311;-82
2022/03/08 07:37:29;;;;;;;18.30;15.80;;;1.90;74.90;;;;;;10500573;28;20204;-81
2022/03/08 07:42:32;;;;;;;17.63;15.10;;;2.00;74.90;;;;;;10458745;28;20350;-81
2022/03/08 07:47:34;;;;;;;20.13;16.00;;;2.10;75.50;;;;;;10429387;28;20313;-81
2022/03/08 07:52:37;;;;;;;15.40;12.73;;;2.20;74.20;;;;;;10441437;28;20229;-81
2022/03/08 07:57:40;;;;;;;13.10;11.30;;;2.40;72.70;;;;;;10443337;28;20220;-81
2022/03/08 08:02:42;;;;;;;12.60;11.00;;;2.50;72.80;;;;;;10441339;28;20216;-80
2022/03/08 08:07:45;;;;;;;12.17;11.00;;;2.70;73.60;;;;;;10446754;28;20691;-80
2022/03/08 08:12:48;;;;;;;11.57;10.00;;;2.90;72.50;;;;;;10436904;28;20252;-80
2022/03/08 08:17:50;;;;;;;10.60;9.70;;;3.10;71.20;;;;;;10429901;28;20201;-81
2022/03/08 08:22:53;;;;;;;11.07;10.07;;;3.30;71.40;;;;;;10430516;28;20232;-81
2022/03/08 08:27:56;;;;;;;11.43;10.30;;;3.60;70.50;;;;;;10448743;28;20253;-81
2022/03/08 08:32:58;;;;;;;14.87;10.13;;;3.80;68.80;;;;;;10481382;28;20225;-80
2022/03/08 08:38:01;;;;;;;11.37;10.27;;;4.00;69.40;;;;;;10467662;28;20259;-81
2022/03/08 08:43:06;;;;;;;10.17;9.23;;;4.20;69.10;;;;;;10481230;22;20282;-86
2022/03/08 08:48:09;;;;;;;10.97;9.83;;;4.40;64.70;;;;;;10462424;28;20228;-84
2022/03/08 08:53:11;;;;;;;11.00;10.00;;;4.70;61.70;;;;;;10474637;28;20682;-84
2022/03/08 08:58:16;;;;;;;9.97;8.83;;;4.80;62.70;;;;;;10475811;28;20643;-84
2022/03/08 09:03:18;;;;;;;9.13;8.23;;;5.00;61.40;;;;;;10482175;28;20320;-83
2022/03/08 09:08:23;;;;;;;9.60;8.43;;;5.20;60.30;;;;;;10473881;28;20570;-84
2022/03/08 09:13:27;;;;;;;8.90;8.10;;;5.20;59.70;;;;;;10487512;28;20311;-88
2022/03/08 09:18:29;;;;;;;9.07;8.27;;;5.30;60.80;;;;;;10480744;28;20192;-87
2022/03/08 09:23:32;;;;;;;9.37;8.57;;;5.60;59.00;;;;;;10476332;28;20212;-85
2022/03/08 09:28:35;;;;;;;9.70;8.70;;;5.70;59.30;;;;;;10469641;28;20554;-87
2022/03/08 09:33:37;;;;;;;9.77;8.80;;;5.90;59.20;;;;;;10468115;28;20228;-84
2022/03/08 09:38:40;;;;;;;8.40;7.70;;;6.10;59.10;;;;;;10468972;28;20197;-86
2022/03/08 09:43:44;;;;;;;8.67;7.87;;;6.40;57.80;;;;;;10507993;28;20232;-86
2022/03/08 09:48:46;;;;;;;9.10;8.20;;;6.60;58.20;;;;;;10484210;28;20286;-84
2022/03/08 09:53:54;;;;;;;8.73;7.73;;;6.80;57.30;;;;;;10480216;28;20274;-84
2022/03/08 09:58:59;;;;;;;7.60;6.90;;;6.90;56.70;;;;;;10478516;28;20189;-87
2022/03/08 10:04:01;;;;;;;8.53;7.73;;;7.10;55.40;;;;;;10513886;28;20562;-86
2022/03/08 10:09:11;;;;;;;8.13;7.33;;;7.20;55.50;;;;;;10487296;28;20200;-86
2022/03/08 10:14:27;;;;;;;8.67;7.17;;;7.10;54.60;;;;;;10509462;28;20684;-86
2022/03/08 10:19:29;;;;;;;8.00;7.30;;;7.10;54.40;;;;;;10493312;28;20192;-85
2022/03/08 10:24:32;;;;;;;9.30;6.33;;;7.00;56.30;;;;;;10454266;28;20219;-85
2022/03/08 10:29:37;;;;;;;15.50;8.40;;;7.00;56.70;;;;;;10472891;28;20204;-84
2022/03/08 10:34:40;;;;;;;8.27;7.50;;;7.00;54.70;;;;;;10462147;28;20293;-85
2022/03/08 10:39:50;;;;;;;8.00;7.30;;;7.00;53.70;;;;;;10480892;28;20626;-86
2022/03/08 10:45:01;;;;;;;8.57;7.67;;;6.80;54.50;;;;;;10461543;28;20733;-85
2022/03/08 10:50:04;;;;;;;7.97;7.27;;;6.70;55.40;;;;;;10459841;28;20207;-85
2022/03/08 10:55:11;;;;;;;7.90;7.30;;;6.70;56.00;;;;;;10457567;28;20353;-85
2022/03/08 11:00:15;;;;;;;8.30;7.23;;;6.80;53.00;;;;;;10456438;28;20573;-86
2022/03/08 11:05:19;;;;;;;7.13;6.53;;;6.80;52.80;;;;;;10470272;28;20220;-85
2022/03/08 11:10:22;;;;;;;8.03;7.33;;;6.70;54.00;;;;;;10463941;28;20197;-85
2022/03/08 11:15:26;;;;;;;7.43;6.30;;;6.80;53.60;;;;;;10470223;28;20630;-85
2022/03/08 11:20:29;;;;;;;7.70;7.00;;;6.80;52.60;;;;;;10479942;28;20196;-86
2022/03/08 11:25:33;;;;;;;6.73;6.13;;;7.00;51.80;;;;;;10535392;28;20223;-86
2022/03/08 11:30:42;;;;;;;7.10;6.40;;;6.90;52.00;;;;;;10491504;28;20199;-86
2022/03/08 11:35:53;;;;;;;7.50;6.77;;;7.10;51.50;;;;;;10497672;28;20215;-84
2022/03/08 11:40:58;;;;;;;6.47;5.90;;;7.00;51.80;;;;;;10504242;28;20345;-85
2022/03/08 11:46:13;;;;;;;6.90;6.30;;;7.10;50.60;;;;;;10488921;28;20586;-85
2022/03/08 11:51:15;;;;;;;7.03;6.33;;;7.20;50.90;;;;;;10525031;28;20222;-86
2022/03/08 11:56:18;;;;;;;7.57;6.60;;;7.30;52.00;;;;;;10494729;28;20296;-87
2022/03/08 12:01:25;;;;;;;6.57;6.00;;;7.40;49.90;;;;;;10525531;28;20253;-85
2022/03/08 12:06:32;;;;;;;7.37;6.77;;;7.40;51.90;;;;;;10528222;28;20283;-85
2022/03/08 12:11:46;;;;;;;7.13;6.53;;;7.50;50.60;;;;;;10512115;28;20655;-84
2022/03/08 12:16:52;;;;;;;8.10;7.40;;;7.70;49.10;;;;;;10505477;28;20211;-83
2022/03/08 12:21:56;;;;;;;7.57;6.80;;;7.70;49.50;;;;;;10497477;28;20196;-86
2022/03/08 12:27:01;;;;;;;8.83;8.03;;;7.70;50.90;;;;;;10493982;28;20228;-85
2022/03/08 12:32:32;;;;;;;7.93;6.80;;;7.70;51.10;;;;;;10515837;28;20230;-85
2022/03/08 12:37:49;;;;;;;8.13;7.30;;;7.80;49.70;;;;;;10483059;28;20196;-86
2022/03/08 12:42:55;;;;;;;8.80;7.87;;;8.00;49.80;;;;;;10501209;28;20580;-85
2022/03/08 12:48:01;;;;;;;8.03;7.33;;;8.00;49.50;;;;;;10500504;28;20230;-85
2022/03/08 12:53:06;;;;;;;8.60;7.80;;;7.90;50.70;;;;;;10496771;28;20266;-85
2022/03/08 12:58:10;;;;;;;8.83;7.93;;;8.00;50.80;;;;;;10510280;28;20231;-86
2022/03/08 13:03:17;;;;;;;9.00;7.60;;;8.10;49.70;;;;;;10510607;28;20238;-84
2022/03/08 13:08:21;;;;;;;9.13;7.80;;;8.20;50.40;;;;;;10521177;28;20287;-86
2022/03/08 13:13:24;;;;;;;9.67;8.80;;;8.30;49.20;;;;;;10512421;28;20238;-84
2022/03/08 13:18:30;;;;;;;8.30;7.50;;;8.30;49.10;;;;;;10493873;28;20207;-86
2022/03/08 13:23:34;;;;;;;8.33;7.23;;;8.40;49.10;;;;;;10489585;28;20220;-85
2022/03/08 13:28:38;;;;;;;8.60;6.63;;;8.30;51.30;;;;;;10538277;28;20239;-87
2022/03/08 13:33:45;;;;;;;6.67;6.07;;;8.40;50.50;;;;;;10510378;28;20276;-86
2022/03/08 13:38:49;;;;;;;6.60;6.00;;;8.50;48.50;;;;;;10480667;28;20211;-84
2022/03/08 13:43:54;;;;;;;7.70;6.63;;;8.50;48.50;;;;;;10481459;28;20303;-85
2022/03/08 13:49:02;;;;;;;8.43;7.50;;;8.70;47.80;;;;;;10492894;28;20196;-86
2022/03/08 13:54:06;;;;;;;8.23;6.63;;;8.70;47.80;;;;;;10474858;28;20720;-85
2022/03/08 13:59:10;;;;;;;6.30;5.80;;;8.80;47.50;;;;;;10480015;28;20541;-86
2022/03/08 14:04:25;;;;;;;7.40;6.67;;;8.80;47.00;;;;;;10470604;28;20234;-84
2022/03/08 14:09:28;;;;;;;8.13;6.70;;;8.80;46.60;;;;;;10494723;28;20232;-84
2022/03/08 14:14:31;;;;;;;8.10;6.80;;;8.90;48.10;;;;;;10499504;28;20220;-85
2022/03/08 14:19:45;;;;;;;7.13;6.53;;;8.90;47.90;;;;;;10511819;28;20211;-86
2022/03/08 14:24:59;;;;;;;7.80;7.10;;;9.10;46.30;;;;;;10463150;28;20711;-85
2022/03/08 14:30:03;;;;;;;8.30;7.50;;;9.10;46.80;;;;;;10483336;28;20197;-86
2022/03/08 14:35:11;;;;;;;8.63;7.83;;;9.10;47.00;;;;;;10453382;28;20220;-86
2022/03/08 14:40:34;;;;;;;8.13;7.43;;;9.10;48.60;;;;;;10446448;28;20211;-86
2022/03/08 14:45:37;;;;;;;8.10;7.13;;;9.10;48.50;;;;;;10448262;22;20733;-82
2022/03/08 14:50:41;;;;;;;9.17;8.23;;;9.10;47.40;;;;;;10419946;28;20289;-81
2022/03/08 14:55:43;;;;;;;10.10;8.67;;;9.10;47.30;;;;;;10455023;28;20231;-81
2022/03/08 15:00:45;;;;;;;8.47;7.77;;;9.10;48.60;;;;;;10472864;28;20204;-82
2022/03/08 15:05:49;;;;;;;10.13;8.13;;;9.20;48.00;;;;;;10487810;28;20220;-81
2022/03/08 15:10:51;;;;;;;10.07;7.63;;;9.20;48.10;;;;;;10457299;28;20205;-81
2022/03/08 15:15:53;;;;;;;8.50;7.43;;;9.20;47.70;;;;;;10481210;28;20235;-82
2022/03/08 15:20:57;;;;;;;6.57;6.00;;;9.10;49.20;;;;;;10464175;28;20574;-81
2022/03/08 15:25:59;;;;;;;6.80;6.20;;;9.20;47.00;;;;;;10479292;28;20217;-81
2022/03/08 15:31:02;;;;;;;6.57;6.07;;;9.10;48.70;;;;;;10477524;28;20230;-81
2022/03/08 15:36:06;;;;;;;5.97;5.47;;;9.20;46.30;;;;;;10493819;28;20228;-81
2022/03/08 15:41:08;;;;;;;6.60;6.10;;;9.30;44.90;;;;;;10440603;28;20199;-81
2022/03/08 15:46:11;;;;;;;6.90;5.80;;;9.30;46.20;;;;;;10476933;28;20259;-81
2022/03/08 15:51:15;;;;;;;5.83;5.33;;;9.30;45.60;;;;;;10445268;28;20202;-82
2022/03/08 15:56:18;;;;;;;7.20;6.50;;;9.30;45.70;;;;;;10463765;28;20224;-82
2022/03/08 16:01:21;;;;;;;8.00;6.40;;;9.30;45.80;;;;;;10462734;28;20208;-81
2022/03/08 16:06:25;;;;;;;6.67;6.07;;;9.30;46.30;;;;;;10465185;28;20212;-81
2022/03/08 16:11:27;;;;;;;8.97;6.07;;;9.30;46.60;;;;;;10454443;28;20196;-81
2022/03/08 16:16:30;;;;;;;5.97;5.47;;;9.30;45.40;;;;;;10437369;28;20233;-81
2022/03/08 16:21:34;;;;;;;6.80;6.10;;;9.30;45.50;;;;;;10435303;28;20623;-81
2022/03/08 16:26:36;;;;;;;6.23;5.73;;;9.20;46.20;;;;;;10421895;28;20221;-81
2022/03/08 16:31:39;;;;;;;6.43;5.93;;;9.20;46.00;;;;;;10440973;28;20250;-82
2022/03/08 16:36:42;;;;;;;6.57;5.97;;;9.10;46.90;;;;;;10458136;28;20582;-80
2022/03/08 16:41:45;;;;;;;7.13;6.07;;;9.00;49.00;;;;;;10445277;28;20211;-80
2022/03/08 16:46:47;;;;;;;7.47;6.40;;;9.00;47.20;;;;;;10462455;28;20291;-80
2022/03/08 16:51:52;;;;;;;6.53;5.93;;;9.00;47.90;;;;;;10451655;28;20253;-80
2022/03/08 16:56:54;;;;;;;6.47;5.87;;;8.90;48.10;;;;;;10465537;28;20221;-80
2022/03/08 17:01:56;;;;;;;7.13;6.50;;;8.80;49.10;;;;;;10461837;28;20289;-80
2022/03/08 17:07:00;;;;;;;6.70;6.10;;;8.80;47.60;;;;;;10421165;28;20237;-80
2022/03/08 17:12:02;;;;;;;7.00;6.30;;;8.70;51.00;;;;;;10454839;28;20722;-81
2022/03/08 17:17:04;;;;;;;7.13;6.47;;;8.60;50.00;;;;;;10477757;28;20224;-80
2022/03/08 17:22:08;;;;;;;9.23;7.10;;;8.40;49.90;;;;;;10468935;28;20657;-80
2022/03/08 17:27:12;;;;;;;7.17;6.53;;;8.30;50.80;;;;;;10474288;28;20303;-80
2022/03/08 17:32:14;;;;;;;8.47;7.37;;;8.10;52.30;;;;;;10495577;28;20205;-80
2022/03/08 17:37:17;;;;;;;9.40;7.17;;;7.80;52.80;;;;;;10483302;28;20224;-81
2022/03/08 17:42:19;;;;;;;8.03;7.33;;;7.60;53.40;;;;;;10441749;28;20793;-82
2022/03/08 17:47:22;;;;;;;8.83;7.93;;;7.30;53.90;;;;;;10462995;28;20256;-83
2022/03/08 17:52:25;;;;;;;7.90;6.97;;;7.10;53.60;;;;;;10460819;28;20207;-83
2022/03/08 17:57:27;;;;;;;11.13;8.10;;;6.90;55.90;;;;;;10461573;28;20315;-82
2022/03/08 18:02:30;;;;;;;9.60;7.50;;;6.70;55.10;;;;;;10505195;28;20204;-83
2022/03/08 18:07:45;;;;;;;8.13;7.43;;;6.50;55.40;;;;;;10464525;28;20253;-81
2022/03/08 18:12:47;;;;;;;9.80;8.80;;;6.40;55.00;;;;;;10441994;28;20303;-81
2022/03/08 18:17:50;;;;;;;13.93;9.60;;;6.20;55.60;;;;;;10425403;28;20263;-82
2022/03/08 18:22:53;;;;;;;8.50;7.60;;;6.10;56.80;;;;;;10473298;28;20211;-81
2022/03/08 18:27:55;;;;;;;9.60;8.13;;;6.00;56.50;;;;;;10474661;28;20204;-81
2022/03/08 18:32:59;;;;;;;12.67;11.23;;;5.90;56.40;;;;;;10509215;28;20609;-81
2022/03/08 18:38:03;;;;;;;9.87;8.83;;;5.80;56.00;;;;;;10471629;28;20210;-81
2022/03/08 18:43:05;;;;;;;9.97;8.93;;;5.80;57.10;;;;;;10450618;28;20205;-83
2022/03/08 18:48:08;;;;;;;9.60;8.60;;;5.60;57.50;;;;;;10474401;28;20189;-82
2022/03/08 18:53:11;;;;;;;10.90;8.27;;;5.60;57.60;;;;;;10489564;28;20216;-82
2022/03/08 18:58:13;;;;;;;12.37;9.10;;;5.50;57.50;;;;;;10485782;28;20212;-81
2022/03/08 19:03:16;;;;;;;11.17;9.27;;;5.40;57.80;;;;;;10474070;28;20250;-81
2022/03/08 19:08:19;;;;;;;11.20;9.50;;;5.40;58.30;;;;;;10471462;28;20291;-81
2022/03/08 19:13:22;;;;;;;10.27;9.27;;;5.30;57.50;;;;;;10506889;28;20217;-82
2022/03/08 19:18:25;;;;;;;9.40;8.10;;;5.30;58.60;;;;;;10472365;28;20275;-82
2022/03/08 19:23:28;;;;;;;10.40;9.30;;;5.20;59.40;;;;;;10477722;28;20622;-82
2022/03/08 19:28:31;;;;;;;14.43;11.40;;;5.20;58.30;;;;;;10431275;28;20269;-82
2022/03/08 19:33:33;;;;;;;12.87;11.53;;;5.10;58.30;;;;;;10457447;28;20670;-82
2022/03/08 19:38:36;;;;;;;12.77;11.40;;;4.90;58.50;;;;;;10487118;28;20260;-82
2022/03/08 19:43:39;;;;;;;15.50;13.13;;;4.90;59.50;;;;;;10479253;28;20235;-82
2022/03/08 19:48:46;;;;;;;15.97;12.80;;;4.80;59.50;;;;;;10513728;28;20228;-82
2022/03/08 19:54:01;;;;;;;17.53;13.70;;;4.70;59.60;;;;;;10483005;28;20221;-81
2022/03/08 19:59:05;;;;;;;17.37;13.67;;;4.70;59.60;;;;;;10485175;28;20200;-82
2022/03/08 20:04:08;;;;;;;10.50;8.67;;;4.70;61.00;;;;;;10478006;28;20217;-81
2022/03/08 20:09:11;;;;;;;12.30;10.23;;;4.70;59.60;;;;;;10480328;28;20224;-82
2022/03/08 20:14:14;;;;;;;14.40;10.47;;;4.70;58.90;;;;;;10485561;28;20224;-81
2022/03/08 20:19:16;;;;;;;10.97;9.80;;;4.60;60.00;;;;;;10515660;28;20276;-82
2022/03/08 20:24:20;;;;;;;11.50;10.30;;;4.60;61.10;;;;;;10482187;28;20718;-81
2022/03/08 20:29:22;;;;;;;14.63;11.40;;;4.60;59.90;;;;;;10498493;28;20594;-81
2022/03/08 20:34:27;;;;;;;27.60;17.63;;;4.60;60.60;;;;;;10501540;28;20217;-81
2022/03/08 20:39:31;;;;;;;31.67;19.23;;;4.50;61.80;;;;;;10498553;28;20211;-81
2022/03/08 20:44:35;;;;;;;15.03;13.17;;;4.50;59.90;;;;;;10526519;22;20259;-84
2022/03/08 20:49:45;;;;;;;14.60;11.77;;;4.50;59.80;;;;;;10475719;28;20201;-87
2022/03/08 20:55:08;;;;;;;13.40;11.43;;;4.40;60.80;;;;;;10578284;22;20233;-84
2022/03/08 21:05:47;;;;;;;11.10;9.50;;;4.20;61.60;;;;;;10735546;22;20232;-86
2022/03/08 21:10:54;;;;;;;12.97;8.93;;;4.20;62.40;;;;;;10479763;28;20275;-85
2022/03/08 21:16:05;;;;;;;14.37;8.90;;;4.20;62.50;;;;;;10488832;28;20552;-86
2022/03/08 21:21:13;;;;;;;10.63;8.57;;;4.20;62.30;;;;;;10454133;28;20201;-86
2022/03/08 21:26:18;;;;;;;9.60;8.53;;;4.20;61.90;;;;;;10456658;28;20217;-86
2022/03/08 21:37:01;;;;;;;9.80;8.80;;;4.20;60.60;;;;;;10444624;28;20677;-87
2022/03/08 21:42:07;;;;;;;10.00;8.80;;;4.00;60.30;;;;;;10449898;28;20201;-85
2022/03/08 21:47:09;;;;;;;9.17;8.27;;;4.00;63.90;;;;;;10434885;28;20747;-85
2022/03/08 21:52:11;;;;;;;10.53;9.47;;;4.00;62.80;;;;;;10429916;28;20205;-85
2022/03/08 21:57:15;;;;;;;9.57;8.63;;;4.00;64.00;;;;;;10437981;28;20220;-86
2022/03/08 22:02:17;;;;;;;9.00;8.10;;;3.90;63.10;;;;;;10448344;28;20267;-85
2022/03/08 22:07:19;;;;;;;10.03;8.97;;;3.90;63.40;;;;;;10460625;28;20297;-85
2022/03/08 22:12:23;;;;;;;10.13;8.97;;;3.80;63.60;;;;;;10453221;28;20198;-86
2022/03/08 22:17:25;;;;;;;9.60;8.10;;;3.70;63.20;;;;;;10456308;28;20229;-85
2022/03/08 22:22:28;;;;;;;9.80;8.80;;;3.60;63.30;;;;;;10449998;28;20204;-84
2022/03/08 22:27:32;;;;;;;9.07;7.90;;;3.60;64.30;;;;;;10433965;28;20224;-85
2022/03/08 22:32:34;;;;;;;10.83;7.80;;;3.50;64.20;;;;;;10415231;28;20193;-87
2022/03/08 22:37:37;;;;;;;9.13;8.10;;;3.50;64.70;;;;;;10415238;28;20216;-86
2022/03/08 22:42:40;;;;;;;10.83;8.80;;;3.50;64.80;;;;;;10431137;28;20281;-86
2022/03/08 22:47:42;;;;;;;8.90;8.00;;;3.50;65.90;;;;;;10427822;28;20270;-85
2022/03/08 22:52:45;;;;;;;8.80;7.90;;;3.50;64.10;;;;;;10462840;28;20208;-85
2022/03/08 22:57:48;;;;;;;11.03;8.60;;;3.50;64.30;;;;;;10418744;28;20221;-85
2022/03/08 23:02:51;;;;;;;17.27;9.33;;;3.40;65.00;;;;;;10446572;28;20217;-86
2022/03/08 23:07:53;;;;;;;10.63;8.17;;;3.50;65.20;;;;;;10434549;28;20228;-85
2022/03/08 23:12:56;;;;;;;10.83;9.00;;;3.40;64.70;;;;;;10418966;28;20201;-85
2022/03/08 23:17:58;;;;;;;10.07;8.53;;;3.40;66.20;;;;;;10460557;28;20218;-85
2022/03/08 23:23:02;;;;;;;9.03;8.23;;;3.40;65.80;;;;;;10401147;28;20205;-85
2022/03/08 23:28:06;;;;;;;9.60;8.50;;;3.40;66.90;;;;;;10439829;28;20726;-86
2022/03/08 23:33:09;;;;;;;9.47;7.83;;;3.30;65.70;;;;;;10415117;28;20213;-85
2022/03/08 23:38:11;;;;;;;9.70;8.70;;;3.30;67.70;;;;;;10407584;28;20291;-85
2022/03/08 23:43:15;;;;;;;10.03;8.87;;;3.30;68.30;;;;;;10439359;28;20202;-86
2022/03/08 23:48:17;;;;;;;10.93;8.13;;;3.40;68.50;;;;;;10453402;28;20296;-87
2022/03/08 23:53:21;;;;;;;10.17;9.20;;;3.40;68.50;;;;;;10433405;28;20196;-86
2022/03/08 23:58:28;;;;;;;10.53;9.43;;;3.30;67.20;;;;;;10414277;28;20228;-87
